createdAt,value
2018-07-26T00:02:13.237Z,26.40
2018-07-26T00:04:42.930Z,26.40
2018-07-26T00:07:11.388Z,26.40
2018-07-26T00:09:58.660Z,26.30
2018-07-26T00:12:27.132Z,26.30
2018-07-26T00:14:55.620Z,26.30
2018-07-26T00:17:24.159Z,26.30
2018-07-26T00:19:52.580Z,26.30
2018-07-26T00:22:21.009Z,26.30
2018-07-26T00:24:49.432Z,26.30
2018-07-26T00:27:36.500Z,26.30
2018-07-26T00:30:05.322Z,26.30
2018-07-26T00:32:33.778Z,26.30
2018-07-26T00:35:02.215Z,26.30
2018-07-26T00:37:30.671Z,26.30
2018-07-26T00:39:59.113Z,26.30
2018-07-26T00:42:27.560Z,26.30
2018-07-26T00:44:56.019Z,26.30
2018-07-26T00:47:24.458Z,26.30
2018-07-26T00:49:52.896Z,26.30
2018-07-26T00:52:21.343Z,26.30
2018-07-26T00:54:49.914Z,26.30
2018-07-26T00:57:18.352Z,26.30
2018-07-26T00:59:52.730Z,26.30
2018-07-26T01:02:21.169Z,26.30
2018-07-26T01:04:49.594Z,26.30
2018-07-26T01:07:18.014Z,26.30
2018-07-26T01:09:46.471Z,26.30
2018-07-26T01:12:14.972Z,26.30
2018-07-26T01:14:43.395Z,26.30
2018-07-26T01:17:12.748Z,26.30
2018-07-26T01:19:41.868Z,26.30
2018-07-26T01:22:10.804Z,26.30
2018-07-26T01:24:39.682Z,26.30
2018-07-26T01:27:08.106Z,26.30
2018-07-26T01:29:36.527Z,26.20
2018-07-26T01:32:04.960Z,26.30
2018-07-26T01:34:33.384Z,26.20
2018-07-26T01:37:01.805Z,26.30
2018-07-26T01:39:30.214Z,26.20
2018-07-26T01:41:58.613Z,26.20
2018-07-26T01:44:27.024Z,26.20
2018-07-26T01:46:55.655Z,26.20
2018-07-26T01:49:24.120Z,26.20
2018-07-26T01:51:52.636Z,26.20
2018-07-26T01:54:21.244Z,26.20
2018-07-26T01:56:49.665Z,26.20
2018-07-26T01:59:18.072Z,26.20
2018-07-26T02:01:46.630Z,26.20
2018-07-26T02:04:14.981Z,26.20
2018-07-26T02:06:43.405Z,26.20
2018-07-26T02:09:12.536Z,26.20
2018-07-26T02:11:41.938Z,26.20
2018-07-26T02:14:14.611Z,26.20
2018-07-26T02:16:43.761Z,26.20
2018-07-26T02:19:13.212Z,26.20
2018-07-26T02:21:42.700Z,26.20
2018-07-26T02:24:11.840Z,26.20
2018-07-26T02:26:41.065Z,26.20
2018-07-26T02:29:09.497Z,26.20
2018-07-26T02:31:37.961Z,26.20
2018-07-26T02:34:06.551Z,26.20
2018-07-26T02:36:34.982Z,26.20
2018-07-26T02:39:04.093Z,26.20
2018-07-26T02:41:32.520Z,26.20
2018-07-26T02:44:00.945Z,26.20
2018-07-26T02:46:29.485Z,26.20
2018-07-26T02:48:57.925Z,26.20
2018-07-26T02:51:26.471Z,26.10
2018-07-26T02:53:54.903Z,26.10
2018-07-26T02:56:23.441Z,26.10
2018-07-26T02:58:51.975Z,26.10
2018-07-26T03:01:20.410Z,26.10
2018-07-26T03:06:39.501Z,26.10
2018-07-26T03:09:08.817Z,26.10
2018-07-26T03:11:37.265Z,26.10
2018-07-26T03:14:05.714Z,26.10
2018-07-26T03:16:34.138Z,26.10
2018-07-26T03:19:02.561Z,26.10
2018-07-26T03:21:30.994Z,26.10
2018-07-26T03:23:59.658Z,26.10
2018-07-26T03:26:28.227Z,26.10
2018-07-26T03:28:56.652Z,26.10
2018-07-26T03:31:25.073Z,26.10
2018-07-26T03:33:53.560Z,26.10
2018-07-26T03:36:21.972Z,26.10
2018-07-26T03:38:50.502Z,26.10
2018-07-26T03:41:18.936Z,26.10
2018-07-26T03:43:47.357Z,26.10
2018-07-26T03:46:15.773Z,26.10
2018-07-26T03:48:44.185Z,26.10
2018-07-26T03:51:13.774Z,26.10
2018-07-26T03:53:43.392Z,26.10
2018-07-26T03:56:12.717Z,26.10
2018-07-26T03:58:41.919Z,26.10
2018-07-26T04:01:10.841Z,26.10
2018-07-26T04:03:40.039Z,26.10
2018-07-26T04:06:09.474Z,26.00
2018-07-26T04:08:38.029Z,26.00
2018-07-26T04:11:06.458Z,26.10
2018-07-26T04:13:34.869Z,26.00
2018-07-26T04:16:03.320Z,26.00
2018-07-26T04:18:31.800Z,26.00
2018-07-26T04:21:00.210Z,26.00
2018-07-26T04:23:28.657Z,26.00
2018-07-26T04:25:57.085Z,26.00
2018-07-26T04:28:25.480Z,26.00
2018-07-26T04:30:53.993Z,26.00
2018-07-26T04:33:22.416Z,26.00
2018-07-26T04:35:50.846Z,26.00
2018-07-26T04:41:10.029Z,26.00
2018-07-26T04:43:38.475Z,26.00
2018-07-26T04:46:07.238Z,26.00
2018-07-26T04:48:36.670Z,26.00
2018-07-26T04:51:05.941Z,26.00
2018-07-26T04:53:34.637Z,26.00
2018-07-26T04:56:03.050Z,26.00
2018-07-26T04:58:31.483Z,26.00
2018-07-26T05:00:59.896Z,26.00
2018-07-26T05:03:28.413Z,26.00
2018-07-26T05:05:56.891Z,26.00
2018-07-26T05:08:25.349Z,26.00
2018-07-26T05:10:53.862Z,26.00
2018-07-26T05:13:22.305Z,26.00
2018-07-26T05:15:50.771Z,26.10
2018-07-26T05:18:19.264Z,26.10
2018-07-26T05:20:47.640Z,26.10
2018-07-26T05:23:16.061Z,26.10
2018-07-26T05:25:44.493Z,26.10
2018-07-26T05:28:14.102Z,26.10
2018-07-26T05:30:43.391Z,26.10
2018-07-26T05:33:13.301Z,26.20
2018-07-26T05:35:41.772Z,26.20
2018-07-26T05:38:10.839Z,26.20
2018-07-26T05:40:39.264Z,26.20
2018-07-26T05:43:07.724Z,26.20
2018-07-26T05:45:36.261Z,26.20
2018-07-26T05:48:04.711Z,26.30
2018-07-26T05:50:33.261Z,26.30
2018-07-26T05:53:01.689Z,26.30
2018-07-26T05:55:30.117Z,26.30
2018-07-26T05:57:58.545Z,26.30
2018-07-26T06:00:27.057Z,26.40
2018-07-26T06:02:55.660Z,26.40
2018-07-26T06:05:24.101Z,26.40
2018-07-26T06:07:52.552Z,26.40
2018-07-26T06:10:20.985Z,26.40
2018-07-26T06:12:49.417Z,26.40
2018-07-26T06:15:17.844Z,26.50
2018-07-26T06:17:46.282Z,26.50
2018-07-26T06:20:14.709Z,26.50
2018-07-26T06:22:44.381Z,26.60
2018-07-26T06:25:14.005Z,26.60
2018-07-26T06:27:44.002Z,26.60
2018-07-26T06:30:14.019Z,26.60
2018-07-26T06:32:43.764Z,26.60
2018-07-26T06:35:13.273Z,26.60
2018-07-26T06:37:42.773Z,26.60
2018-07-26T06:40:11.770Z,26.70
2018-07-26T06:42:40.903Z,26.70
2018-07-26T06:45:10.817Z,26.70
2018-07-26T06:47:39.477Z,26.70
2018-07-26T06:50:09.494Z,26.70
2018-07-26T06:52:38.081Z,26.80
2018-07-26T06:55:06.861Z,26.80
2018-07-26T06:57:35.282Z,26.80
2018-07-26T07:00:04.781Z,26.90
2018-07-26T07:02:33.311Z,26.90
2018-07-26T07:05:01.753Z,26.90
2018-07-26T07:07:30.169Z,27.00
2018-07-26T07:09:58.635Z,27.00
2018-07-26T07:12:27.073Z,27.00
2018-07-26T07:14:55.607Z,27.10
2018-07-26T07:17:24.044Z,27.10
2018-07-26T07:19:52.486Z,27.10
2018-07-26T07:22:20.917Z,27.10
2018-07-26T07:24:49.354Z,27.10
2018-07-26T07:27:17.807Z,27.20
2018-07-26T07:29:46.255Z,27.20
2018-07-26T07:32:14.700Z,27.20
2018-07-26T07:34:43.963Z,27.20
2018-07-26T07:37:13.139Z,27.20
2018-07-26T07:39:42.684Z,27.20
2018-07-26T07:42:11.924Z,27.20
2018-07-26T07:44:40.845Z,27.20
2018-07-26T07:47:09.296Z,27.20
2018-07-26T07:49:37.753Z,27.20
2018-07-26T07:52:06.270Z,27.30
2018-07-26T07:54:34.801Z,27.30
2018-07-26T07:57:03.242Z,27.30
2018-07-26T07:59:31.691Z,27.30
2018-07-26T08:02:00.121Z,27.30
2018-07-26T08:04:28.565Z,27.30
2018-07-26T08:06:57.034Z,27.30
2018-07-26T08:09:25.498Z,27.30
2018-07-26T08:11:53.938Z,27.20
2018-07-26T08:14:22.389Z,27.30
2018-07-26T08:16:50.835Z,27.30
2018-07-26T08:19:19.268Z,27.30
2018-07-26T08:21:47.718Z,27.30
2018-07-26T08:24:17.267Z,27.30
2018-07-26T08:26:45.729Z,27.30
2018-07-26T08:29:14.170Z,27.30
2018-07-26T08:31:43.605Z,27.30
2018-07-26T08:34:12.728Z,27.30
2018-07-26T08:36:42.326Z,27.40
2018-07-26T08:39:12.546Z,27.40
2018-07-26T08:41:41.753Z,27.40
2018-07-26T08:44:10.973Z,27.40
2018-07-26T08:46:39.419Z,27.40
2018-07-26T08:49:08.221Z,27.40
2018-07-26T08:54:04.831Z,27.40
2018-07-26T08:56:33.283Z,27.40
2018-07-26T08:59:01.725Z,27.40
2018-07-26T09:01:30.161Z,27.40
2018-07-26T09:03:58.835Z,27.40
2018-07-26T09:06:27.280Z,27.40
2018-07-26T09:08:55.769Z,27.40
2018-07-26T09:11:24.236Z,27.40
2018-07-26T09:13:52.687Z,27.40
2018-07-26T09:18:49.227Z,27.40
2018-07-26T09:21:17.654Z,27.40
2018-07-26T09:23:46.094Z,27.40
2018-07-26T09:26:14.893Z,27.40
2018-07-26T09:28:43.354Z,27.50
2018-07-26T09:31:13.131Z,27.50
2018-07-26T09:33:42.367Z,27.40
2018-07-26T09:36:11.287Z,27.40
2018-07-26T09:38:39.753Z,27.50
2018-07-26T09:41:08.274Z,27.50
2018-07-26T09:43:36.740Z,27.50
2018-07-26T09:46:05.188Z,27.50
2018-07-26T09:48:33.633Z,27.50
2018-07-26T09:51:02.075Z,27.40
2018-07-26T09:53:30.542Z,27.50
2018-07-26T09:55:58.974Z,27.50
2018-07-26T09:58:27.425Z,27.50
2018-07-26T10:01:01.397Z,27.50
2018-07-26T10:03:29.846Z,27.50
2018-07-26T10:05:58.287Z,27.50
2018-07-26T10:08:26.737Z,27.50
2018-07-26T10:10:55.186Z,27.50
2018-07-26T10:13:23.663Z,27.50
2018-07-26T10:15:52.163Z,27.50
2018-07-26T10:18:20.607Z,27.60
2018-07-26T10:20:49.056Z,27.50
2018-07-26T10:23:17.544Z,27.60
2018-07-26T10:25:45.997Z,27.50
2018-07-26T10:33:12.976Z,27.60
2018-07-26T10:35:41.412Z,27.60
2018-07-26T10:38:09.870Z,27.60
2018-07-26T10:40:38.309Z,27.60
2018-07-26T10:43:06.817Z,27.60
2018-07-26T10:45:35.260Z,27.60
2018-07-26T10:48:03.717Z,27.60
2018-07-26T10:50:32.172Z,27.60
2018-07-26T10:53:00.631Z,27.60
2018-07-26T10:55:29.064Z,27.60
2018-07-26T10:57:57.585Z,27.60
2018-07-26T11:00:26.121Z,27.60
2018-07-26T11:02:54.620Z,27.60
2018-07-26T11:05:23.086Z,27.70
2018-07-26T11:07:51.523Z,27.70
2018-07-26T11:10:19.997Z,27.70
2018-07-26T11:12:48.462Z,27.70
2018-07-26T11:15:27.442Z,27.70
2018-07-26T11:21:13.884Z,27.70
2018-07-26T11:23:42.391Z,27.70
2018-07-26T11:26:10.920Z,27.70
2018-07-26T11:28:39.324Z,27.70
2018-07-26T11:31:07.772Z,27.80
2018-07-26T11:33:36.175Z,27.80
2018-07-26T11:36:04.738Z,27.80
2018-07-26T11:38:33.163Z,27.80
2018-07-26T11:41:01.575Z,27.80
2018-07-26T11:43:29.977Z,27.80
2018-07-26T11:45:58.535Z,27.80
2018-07-26T11:48:26.942Z,27.80
2018-07-26T11:50:55.347Z,27.80
2018-07-26T11:53:23.759Z,27.80
2018-07-26T11:55:52.201Z,27.80
2018-07-26T11:58:20.638Z,27.80
2018-07-26T12:00:49.058Z,27.80
2018-07-26T12:03:17.478Z,27.90
2018-07-26T12:05:45.903Z,27.80
2018-07-26T12:08:14.367Z,27.90
2018-07-26T12:10:43.667Z,27.80
2018-07-26T12:13:13.249Z,27.90
2018-07-26T12:15:42.175Z,27.90
2018-07-26T12:18:11.807Z,27.90
2018-07-26T12:20:40.782Z,27.90
2018-07-26T12:23:09.218Z,27.90
2018-07-26T12:25:37.687Z,27.90
2018-07-26T12:28:06.123Z,27.90
2018-07-26T12:30:34.553Z,27.90
2018-07-26T12:33:02.979Z,27.90
2018-07-26T12:35:31.421Z,27.90
2018-07-26T12:37:59.847Z,27.90
2018-07-26T12:40:28.278Z,27.90
2018-07-26T12:42:56.711Z,27.90
2018-07-26T12:45:25.134Z,27.90
2018-07-26T12:47:53.577Z,27.90
2018-07-26T12:50:21.973Z,27.90
2018-07-26T12:52:50.382Z,27.90
2018-07-26T12:55:18.813Z,27.90
2018-07-26T12:57:47.231Z,27.90
2018-07-26T13:00:16.619Z,27.90
2018-07-26T13:02:45.062Z,27.90
2018-07-26T13:05:13.509Z,27.90
2018-07-26T13:07:42.925Z,27.90
2018-07-26T13:10:11.761Z,27.90
2018-07-26T13:12:40.896Z,27.90
2018-07-26T13:15:09.376Z,27.90
2018-07-26T13:17:37.933Z,27.90
2018-07-26T13:20:07.543Z,27.90
2018-07-26T13:22:35.985Z,27.90
2018-07-26T13:25:04.720Z,27.90
2018-07-26T13:27:33.297Z,27.90
2018-07-26T13:30:01.718Z,28.00
2018-07-26T13:32:30.136Z,27.90
2018-07-26T13:34:58.688Z,27.90
2018-07-26T13:37:27.109Z,28.00
2018-07-26T13:39:55.548Z,28.00
2018-07-26T13:42:23.970Z,28.00
2018-07-26T13:44:52.395Z,28.00
2018-07-26T13:47:20.809Z,28.00
2018-07-26T13:49:50.129Z,28.00
2018-07-26T13:55:09.154Z,28.00
2018-07-26T13:57:37.597Z,28.00
2018-07-26T14:00:06.308Z,28.00
2018-07-26T14:02:34.735Z,28.00
2018-07-26T14:05:03.401Z,28.00
2018-07-26T14:07:31.833Z,28.00
2018-07-26T14:10:00.479Z,28.00
2018-07-26T14:12:28.909Z,28.00
2018-07-26T14:14:57.370Z,28.00
2018-07-26T14:17:25.942Z,28.00
2018-07-26T14:19:55.054Z,28.00
2018-07-26T14:22:23.622Z,28.00
2018-07-26T14:24:52.608Z,28.00
2018-07-26T14:27:21.139Z,28.00
2018-07-26T14:29:49.767Z,28.00
2018-07-26T14:32:18.190Z,28.00
2018-07-26T14:34:46.639Z,28.00
2018-07-26T14:37:15.100Z,28.00
2018-07-26T14:42:34.413Z,28.00
2018-07-26T14:45:02.889Z,28.00
2018-07-26T14:47:31.901Z,28.00
2018-07-26T14:50:00.688Z,28.00
2018-07-26T14:52:29.520Z,28.00
2018-07-26T14:54:58.779Z,28.00
2018-07-26T14:57:27.737Z,28.00
2018-07-26T14:59:56.235Z,28.00
2018-07-26T15:02:25.406Z,28.00
2018-07-26T15:04:54.451Z,28.00
2018-07-26T15:07:23.451Z,28.00
2018-07-26T15:09:59.413Z,28.00
2018-07-26T15:12:28.463Z,27.90
2018-07-26T15:14:57.583Z,28.00
2018-07-26T15:17:26.538Z,28.00
2018-07-26T15:19:55.645Z,28.00
2018-07-26T15:22:24.107Z,28.00
2018-07-26T15:24:52.518Z,28.00
2018-07-26T15:27:20.944Z,27.90
2018-07-26T15:29:49.979Z,28.00
2018-07-26T15:32:19.093Z,28.00
2018-07-26T15:34:48.285Z,28.00
2018-07-26T15:37:17.529Z,27.90
2018-07-26T15:39:46.672Z,28.00
2018-07-26T15:42:15.779Z,27.90
2018-07-26T15:44:44.986Z,27.90
2018-07-26T15:47:13.906Z,27.90
2018-07-26T15:49:43.379Z,27.90
2018-07-26T15:52:12.291Z,27.90
2018-07-26T15:54:41.466Z,27.90
2018-07-26T15:57:12.958Z,27.90
2018-07-26T15:59:42.604Z,27.90
2018-07-26T16:02:12.009Z,27.90
2018-07-26T16:04:43.485Z,27.90
2018-07-26T16:07:12.653Z,27.90
2018-07-26T16:09:43.530Z,27.90
2018-07-26T16:12:14.069Z,27.90
2018-07-26T16:14:44.290Z,27.90
2018-07-26T16:17:15.026Z,27.90
2018-07-26T16:19:43.480Z,27.90
2018-07-26T16:22:13.339Z,27.90
2018-07-26T16:24:42.558Z,27.90
2018-07-26T16:27:11.687Z,27.90
2018-07-26T16:29:41.677Z,27.90
2018-07-26T16:32:11.544Z,27.90
2018-07-26T16:34:41.722Z,27.90
2018-07-26T16:37:11.614Z,27.90
2018-07-26T16:39:41.521Z,27.90
2018-07-26T16:42:11.744Z,27.90
2018-07-26T16:44:40.929Z,27.80
2018-07-26T16:47:10.097Z,27.80
2018-07-26T16:49:40.856Z,27.80
2018-07-26T16:52:10.051Z,27.80
2018-07-26T16:54:39.244Z,27.80
2018-07-26T16:57:08.554Z,27.80
2018-07-26T16:59:37.686Z,27.80
2018-07-26T17:02:06.947Z,27.80
2018-07-26T17:04:36.048Z,27.80
2018-07-26T17:07:05.195Z,27.80
2018-07-26T17:09:33.885Z,27.80
2018-07-26T17:12:02.978Z,27.80
2018-07-26T17:14:32.023Z,27.80
2018-07-26T17:17:01.003Z,27.80
2018-07-26T17:19:29.469Z,27.80
2018-07-26T17:21:59.355Z,27.80
2018-07-26T17:24:28.276Z,27.80
2018-07-26T17:26:57.631Z,27.80
2018-07-26T17:29:26.079Z,27.80
2018-07-26T17:31:54.502Z,27.80
2018-07-26T17:34:23.122Z,27.80
2018-07-26T17:36:52.134Z,27.80
2018-07-26T17:39:21.352Z,27.80
2018-07-26T17:41:49.865Z,27.80
2018-07-26T17:44:18.928Z,27.70
2018-07-26T17:46:49.254Z,27.70
2018-07-26T17:49:19.005Z,27.70
2018-07-26T17:51:48.252Z,27.70
2018-07-26T17:54:17.631Z,27.70
2018-07-26T17:56:47.025Z,27.70
2018-07-26T17:59:16.240Z,27.70
2018-07-26T18:01:45.371Z,27.70
2018-07-26T18:04:14.358Z,27.70
2018-07-26T18:06:43.697Z,27.70
2018-07-26T18:09:13.238Z,27.70
2018-07-26T18:11:41.836Z,27.70
2018-07-26T18:14:10.447Z,27.70
2018-07-26T18:16:39.060Z,27.70
2018-07-26T18:19:07.581Z,27.70
2018-07-26T18:21:36.145Z,27.60
2018-07-26T18:24:04.685Z,27.60
2018-07-26T18:26:34.927Z,27.60
2018-07-26T18:29:04.620Z,27.60
2018-07-26T18:31:34.425Z,27.60
2018-07-26T18:34:04.176Z,27.60
2018-07-26T18:36:35.602Z,27.60
2018-07-26T18:39:07.784Z,27.60
2018-07-26T18:41:41.694Z,27.60
2018-07-26T18:44:12.232Z,27.60
2018-07-26T18:46:43.301Z,27.60
2018-07-26T18:49:13.980Z,27.60
2018-07-26T18:51:44.239Z,27.60
2018-07-26T18:54:15.629Z,27.60
2018-07-26T18:59:15.444Z,27.60
2018-07-26T19:01:45.890Z,27.60
2018-07-26T19:04:15.860Z,27.50
2018-07-26T19:06:45.592Z,27.50
2018-07-26T19:09:15.134Z,27.50
2018-07-26T19:11:45.219Z,27.50
2018-07-26T19:14:15.549Z,27.50
2018-07-26T19:16:45.009Z,27.50
2018-07-26T19:19:15.581Z,27.50
2018-07-26T19:21:45.076Z,27.50
2018-07-26T19:24:15.235Z,27.50
2018-07-26T19:26:44.884Z,27.50
2018-07-26T19:29:14.568Z,27.50
2018-07-26T19:31:44.666Z,27.50
2018-07-26T19:34:15.144Z,27.50
2018-07-26T19:36:44.776Z,27.50
2018-07-26T19:39:16.295Z,27.40
2018-07-26T19:41:46.090Z,27.40
2018-07-26T19:44:16.280Z,27.40
2018-07-26T19:46:46.921Z,27.40
2018-07-26T19:49:16.655Z,27.40
2018-07-26T19:51:48.005Z,27.40
2018-07-26T19:54:17.632Z,27.40
2018-07-26T19:56:47.300Z,27.40
2018-07-26T19:59:17.338Z,27.40
2018-07-26T20:01:47.584Z,27.30
2018-07-26T20:04:17.364Z,27.30
2018-07-26T20:06:46.986Z,27.30
2018-07-26T20:09:16.494Z,27.30
2018-07-26T20:11:46.094Z,27.30
2018-07-26T20:14:15.974Z,27.30
2018-07-26T20:19:36.299Z,27.30
2018-07-26T20:22:05.979Z,27.30
2018-07-26T20:24:35.654Z,27.30
2018-07-26T20:27:04.267Z,27.30
2018-07-26T20:29:32.721Z,27.30
2018-07-26T20:32:01.219Z,27.30
2018-07-26T20:34:29.700Z,27.30
2018-07-26T20:39:26.313Z,27.30
2018-07-26T20:41:54.791Z,27.30
2018-07-26T20:44:23.439Z,27.30
2018-07-26T20:46:52.029Z,27.30
2018-07-26T20:49:20.464Z,27.30
2018-07-26T20:51:49.205Z,27.30
2018-07-26T20:54:17.625Z,27.30
2018-07-26T20:56:46.055Z,27.30
2018-07-26T20:59:14.497Z,27.20
2018-07-26T21:01:44.053Z,27.20
2018-07-26T21:04:13.298Z,27.20
2018-07-26T21:06:42.190Z,27.20
2018-07-26T21:09:12.745Z,27.20
2018-07-26T21:11:41.943Z,27.20
2018-07-26T21:14:10.847Z,27.20
2018-07-26T21:16:39.395Z,27.20
2018-07-26T21:19:07.825Z,27.20
2018-07-26T21:21:36.241Z,27.20
2018-07-26T21:24:04.912Z,27.20
2018-07-26T21:29:01.576Z,27.20
2018-07-26T21:31:30.035Z,27.20
2018-07-26T21:33:58.522Z,27.20
2018-07-26T21:36:26.946Z,27.20
2018-07-26T21:38:55.377Z,27.20
2018-07-26T21:41:23.803Z,27.20
2018-07-26T21:43:52.250Z,27.20
2018-07-26T21:46:20.671Z,27.20
2018-07-26T21:48:49.150Z,27.20
2018-07-26T21:51:17.575Z,27.20
2018-07-26T21:53:46.003Z,27.10
2018-07-26T21:56:14.486Z,27.10
2018-07-26T21:58:44.018Z,27.10
2018-07-26T22:01:13.833Z,27.10
2018-07-26T22:03:43.422Z,27.10
2018-07-26T22:06:12.208Z,27.10
2018-07-26T22:08:41.650Z,27.10
2018-07-26T22:11:10.856Z,27.10
2018-07-26T22:13:39.276Z,27.10
2018-07-26T22:16:07.706Z,27.10
2018-07-26T22:18:36.178Z,27.00
2018-07-26T22:21:04.809Z,27.10
2018-07-26T22:23:33.214Z,27.10
2018-07-26T22:26:01.630Z,27.10
2018-07-26T22:28:30.027Z,27.10
2018-07-26T22:30:58.430Z,27.10
2018-07-26T22:33:26.832Z,27.10
2018-07-26T22:35:55.236Z,27.10
2018-07-26T22:38:23.643Z,27.10
2018-07-26T22:40:52.046Z,27.00
2018-07-26T22:43:20.458Z,27.00
2018-07-26T22:45:48.921Z,27.00
2018-07-26T22:48:17.323Z,27.00
2018-07-26T22:50:45.724Z,27.00
2018-07-26T22:53:14.131Z,27.00
2018-07-26T22:55:43.466Z,27.00
2018-07-26T22:58:15.865Z,27.00
2018-07-26T23:00:44.337Z,27.00
2018-07-26T23:03:13.892Z,27.00
2018-07-26T23:05:42.436Z,27.00
2018-07-26T23:08:10.946Z,27.00
2018-07-26T23:10:39.373Z,27.00
2018-07-26T23:13:07.810Z,27.00
2018-07-26T23:15:36.233Z,27.00
2018-07-26T23:18:04.740Z,27.00
2018-07-26T23:20:33.158Z,27.00
2018-07-26T23:23:01.598Z,27.00
2018-07-26T23:25:30.021Z,27.00
2018-07-26T23:27:58.447Z,27.00
2018-07-26T23:30:26.870Z,27.00
2018-07-26T23:32:55.302Z,27.00
2018-07-26T23:35:23.724Z,27.00
2018-07-26T23:37:52.140Z,27.00
2018-07-26T23:40:20.686Z,27.00
2018-07-26T23:42:49.121Z,27.00
2018-07-26T23:45:17.653Z,26.90
2018-07-26T23:47:46.079Z,26.90
2018-07-26T23:50:14.494Z,26.90
2018-07-26T23:52:43.006Z,26.90
2018-07-26T23:55:12.886Z,26.90
2018-07-26T23:57:41.702Z,26.90
